Time;durP1;ratioP1;P1;durP2;ratioP2;P2;SDS_P1;SDS_P2;PMS_P1;PMS_P2;Temp;Humidity;BMP_temperature;BMP_pressure;BME280_temperature;BME280_humidity;BME280_pressure;Samples;Min_cycle;Max_cycle;Signal;HPM_P1;HPM_P2
2023/09/15 00:01:45;;;;;;;14.87;12.23;;;10.30;99.90;;;;;;5073061;28;20288;-67
2023/09/15 00:04:12;;;;;;;15.13;13.20;;;10.20;99.90;;;;;;5073151;28;20197;-67
2023/09/15 00:06:39;;;;;;;15.63;12.10;;;10.20;99.90;;;;;;5072542;28;20197;-67
2023/09/15 00:09:14;;;;;;;12.70;11.43;;;10.10;99.90;;;;;;5073146;28;20216;-67
2023/09/15 00:11:42;;;;;;;14.30;12.07;;;10.10;99.90;;;;;;5072876;28;20655;-67
2023/09/15 00:14:10;;;;;;;15.27;12.60;;;10.10;99.90;;;;;;5073010;28;20213;-67
2023/09/15 00:16:38;;;;;;;12.37;11.07;;;10.00;99.90;;;;;;5072875;28;20197;-67
2023/09/15 00:19:06;;;;;;;14.20;12.27;;;10.10;99.90;;;;;;5072820;28;20242;-67
2023/09/15 00:21:33;;;;;;;22.27;12.50;;;10.10;99.90;;;;;;5072949;28;20568;-67
2023/09/15 00:23:59;;;;;;;13.40;12.10;;;10.00;99.90;;;;;;5072894;28;20197;-67
2023/09/15 00:26:27;;;;;;;15.40;12.17;;;10.10;99.90;;;;;;5072882;28;20197;-67
2023/09/15 00:28:56;;;;;;;13.73;12.23;;;10.30;99.90;;;;;;5072787;28;20250;-67
2023/09/15 00:31:24;;;;;;;14.70;12.37;;;10.50;99.90;;;;;;5072604;28;20315;-67
2023/09/15 00:33:50;;;;;;;14.43;12.40;;;10.50;99.90;;;;;;5072913;28;20205;-67
2023/09/15 00:36:17;;;;;;;13.80;11.87;;;10.40;99.90;;;;;;5072805;28;20235;-67
2023/09/15 00:38:44;;;;;;;14.20;12.67;;;10.30;99.90;;;;;;5072740;28;20201;-67
2023/09/15 00:41:10;;;;;;;13.80;12.40;;;10.50;99.90;;;;;;5072467;28;20743;-67
2023/09/15 00:43:38;;;;;;;13.70;11.83;;;10.40;99.90;;;;;;5072599;28;20270;-67
2023/09/15 00:46:06;;;;;;;14.20;12.10;;;10.50;99.90;;;;;;5072514;28;20287;-67
2023/09/15 00:48:33;;;;;;;13.30;11.90;;;10.30;99.90;;;;;;5072782;28;20288;-67
2023/09/15 00:51:00;;;;;;;14.33;12.33;;;10.40;99.90;;;;;;5072587;28;20228;-67
2023/09/15 00:53:26;;;;;;;13.97;12.33;;;10.30;99.90;;;;;;5072597;28;20228;-67
2023/09/15 00:55:53;;;;;;;12.93;11.43;;;10.10;99.90;;;;;;5072602;28;20193;-68
2023/09/15 00:58:20;;;;;;;14.83;11.63;;;10.00;99.90;;;;;;5072462;28;20200;-68
2023/09/15 01:00:48;;;;;;;14.57;12.70;;;9.90;99.90;;;;;;5072422;28;20208;-67
2023/09/15 01:03:20;;;;;;;16.50;12.07;;;9.90;99.90;;;;;;5072557;28;20247;-68
2023/09/15 01:05:47;;;;;;;13.43;12.00;;;9.70;99.90;;;;;;5072634;28;20231;-68
2023/09/15 01:08:14;;;;;;;14.00;12.17;;;9.70;99.90;;;;;;5072559;28;20201;-67
2023/09/15 01:10:41;;;;;;;14.40;12.93;;;9.60;99.90;;;;;;5072463;28;20201;-68
2023/09/15 01:13:08;;;;;;;16.13;13.03;;;9.60;99.90;;;;;;5072143;28;20235;-68
2023/09/15 01:15:46;;;;;;;14.90;13.30;;;9.60;99.90;;;;;;5072519;28;20205;-67
2023/09/15 01:18:23;;;;;;;15.97;13.07;;;9.60;99.90;;;;;;5072386;28;20250;-67
2023/09/15 01:21:27;;;;;;;14.67;12.20;;;9.60;99.90;;;;;;5076190;28;20201;-67
2023/09/15 01:24:25;;;;;;;16.70;12.40;;;9.50;99.90;;;;;;5076126;28;20197;-68
2023/09/15 01:27:27;;;;;;;13.30;11.77;;;9.50;99.90;;;;;;5071361;28;20284;-67
2023/09/15 01:29:58;;;;;;;12.63;11.30;;;9.50;99.90;;;;;;5062914;28;20674;-67
2023/09/15 01:32:26;;;;;;;13.50;10.97;;;9.40;99.90;;;;;;5075818;28;20586;-67
2023/09/15 01:34:54;;;;;;;12.73;11.43;;;9.40;99.90;;;;;;5075787;28;20196;-68
2023/09/15 01:37:21;;;;;;;11.60;10.40;;;9.60;99.90;;;;;;5075295;28;20228;-68
2023/09/15 01:39:50;;;;;;;11.30;10.20;;;9.80;99.90;;;;;;5075733;28;20197;-67
2023/09/15 01:42:17;;;;;;;15.27;10.43;;;9.90;99.90;;;;;;5075738;28;20279;-67
2023/09/15 01:44:43;;;;;;;12.43;9.87;;;10.00;99.90;;;;;;5075681;28;20679;-68
2023/09/15 01:47:18;;;;;;;11.23;10.03;;;10.00;99.90;;;;;;5075782;28;20564;-67
2023/09/15 01:49:46;;;;;;;11.77;10.53;;;10.00;99.90;;;;;;5075579;28;20667;-68
2023/09/15 01:52:14;;;;;;;12.57;9.77;;;10.00;99.90;;;;;;5075542;28;20614;-67
2023/09/15 01:54:40;;;;;;;12.07;10.37;;;10.00;99.90;;;;;;5075455;28;20278;-68
2023/09/15 01:57:07;;;;;;;10.70;9.60;;;10.00;99.90;;;;;;5075302;28;20201;-67
2023/09/15 01:59:34;;;;;;;13.37;10.33;;;9.80;99.90;;;;;;5075582;28;20195;-67
2023/09/15 02:02:01;;;;;;;11.60;10.40;;;9.60;99.90;;;;;;5075335;28;20228;-67
2023/09/15 02:04:29;;;;;;;12.30;11.00;;;9.40;99.90;;;;;;5075396;28;20197;-68
2023/09/15 02:06:55;;;;;;;12.63;11.10;;;9.30;99.90;;;;;;5075322;28;20193;-68
2023/09/15 02:09:22;;;;;;;11.83;10.17;;;9.30;99.90;;;;;;5074778;28;20197;-67
2023/09/15 02:11:49;;;;;;;12.73;11.40;;;9.40;99.90;;;;;;5075292;28;20240;-67
2023/09/15 02:14:15;;;;;;;15.90;12.33;;;9.20;99.90;;;;;;5075308;28;20197;-68
2023/09/15 02:16:42;;;;;;;15.23;12.50;;;9.20;99.90;;;;;;5075187;28;20201;-68
2023/09/15 02:19:09;;;;;;;13.17;11.77;;;9.10;99.90;;;;;;5075114;28;20197;-67
2023/09/15 02:21:37;;;;;;;12.90;11.27;;;9.20;99.90;;;;;;5075063;28;20205;-67
2023/09/15 02:24:04;;;;;;;12.77;11.57;;;9.30;99.90;;;;;;5074874;28;20664;-67
2023/09/15 02:26:30;;;;;;;13.10;11.73;;;9.40;99.90;;;;;;5075110;28;20258;-67
2023/09/15 02:28:57;;;;;;;13.67;12.03;;;9.40;99.90;;;;;;5074934;28;20251;-67
2023/09/15 02:31:24;;;;;;;13.60;12.20;;;9.50;99.90;;;;;;5074550;28;20233;-67
2023/09/15 02:33:51;;;;;;;13.57;11.70;;;9.50;99.90;;;;;;5074806;28;20208;-68
2023/09/15 02:36:17;;;;;;;14.30;12.20;;;9.50;99.90;;;;;;5074634;28;20286;-68
2023/09/15 02:38:45;;;;;;;21.73;11.87;;;9.60;99.90;;;;;;5074526;28;20648;-67
2023/09/15 02:41:12;;;;;;;12.33;11.13;;;9.60;99.90;;;;;;5074846;28;20200;-67
2023/09/15 02:43:39;;;;;;;13.07;11.77;;;9.70;99.90;;;;;;5074834;28;20342;-67
2023/09/15 02:46:06;;;;;;;12.33;10.37;;;9.60;99.90;;;;;;5074525;28;20251;-67
2023/09/15 02:48:32;;;;;;;13.07;11.03;;;9.60;99.90;;;;;;5074451;28;20197;-68
2023/09/15 02:50:59;;;;;;;15.03;11.83;;;9.50;99.90;;;;;;5074266;28;20657;-68
2023/09/15 02:53:26;;;;;;;13.23;11.70;;;9.40;99.90;;;;;;5074570;28;20254;-67
2023/09/15 02:55:59;;;;;;;12.63;11.33;;;9.30;99.90;;;;;;5074576;28;20197;-68
2023/09/15 02:58:26;;;;;;;11.80;10.27;;;9.50;99.90;;;;;;5074523;28;20197;-68
2023/09/15 03:00:52;;;;;;;12.63;11.10;;;9.50;99.90;;;;;;5074236;28;20243;-67
2023/09/15 03:03:24;;;;;;;13.30;10.90;;;9.50;99.90;;;;;;5074296;28;20197;-67
2023/09/15 03:05:51;;;;;;;11.47;10.23;;;9.30;99.90;;;;;;5074174;28;20205;-68
2023/09/15 03:08:17;;;;;;;11.33;10.13;;;9.30;99.90;;;;;;5074281;28;20254;-68
2023/09/15 03:10:44;;;;;;;11.53;10.43;;;9.40;99.90;;;;;;5074275;28;20205;-67
2023/09/15 03:13:12;;;;;;;11.47;10.27;;;9.30;99.90;;;;;;5073981;28;20224;-67
2023/09/15 03:15:39;;;;;;;14.80;10.60;;;9.10;99.90;;;;;;5073994;28;20258;-68
2023/09/15 03:18:06;;;;;;;12.27;10.97;;;9.20;99.90;;;;;;5073796;28;20727;-67
2023/09/15 03:20:33;;;;;;;11.77;10.57;;;9.30;99.90;;;;;;5074075;28;20205;-67
2023/09/15 03:23:00;;;;;;;11.57;10.37;;;9.30;99.90;;;;;;5073872;28;20247;-67
2023/09/15 03:25:27;;;;;;;12.43;10.73;;;9.10;99.90;;;;;;5073764;28;20287;-68
2023/09/15 03:27:54;;;;;;;13.77;11.23;;;8.90;99.90;;;;;;5074021;28;20193;-67
2023/09/15 03:30:22;;;;;;;11.90;10.63;;;8.90;99.90;;;;;;5073684;28;20250;-68
2023/09/15 03:32:49;;;;;;;14.53;12.27;;;8.80;99.90;;;;;;5073434;28;20221;-68
2023/09/15 03:35:15;;;;;;;15.73;11.23;;;8.80;99.90;;;;;;5073730;28;20201;-68
2023/09/15 03:37:42;;;;;;;15.20;11.10;;;8.80;99.90;;;;;;5073369;28;20274;-68
2023/09/15 03:40:11;;;;;;;13.83;11.93;;;8.80;99.90;;;;;;5073609;28;20242;-67
2023/09/15 03:42:38;;;;;;;13.77;11.87;;;8.70;99.90;;;;;;5072725;28;20208;-68
2023/09/15 03:45:05;;;;;;;15.70;11.87;;;8.70;99.90;;;;;;5073251;28;20648;-68
2023/09/15 03:47:33;;;;;;;13.40;11.83;;;8.90;99.90;;;;;;5073234;28;20250;-68
2023/09/15 03:50:01;;;;;;;12.17;10.80;;;9.00;99.90;;;;;;5073521;28;20204;-68
2023/09/15 03:52:27;;;;;;;12.40;11.07;;;9.20;99.90;;;;;;5073215;28;20232;-69
2023/09/15 03:55:00;;;;;;;13.37;11.57;;;9.30;99.90;;;;;;5073260;28;20852;-68
2023/09/15 03:57:27;;;;;;;12.33;11.03;;;9.10;99.90;;;;;;5073155;28;20229;-68
2023/09/15 03:59:53;;;;;;;13.20;11.80;;;9.00;99.90;;;;;;5073101;28;20204;-68
2023/09/15 04:02:20;;;;;;;13.40;12.00;;;8.90;99.90;;;;;;5073352;28;20267;-68
2023/09/15 04:04:48;;;;;;;15.03;11.03;;;8.90;99.90;;;;;;5073285;28;20216;-69
2023/09/15 04:07:15;;;;;;;12.40;10.73;;;9.10;99.90;;;;;;5073002;28;20262;-68
2023/09/15 04:09:42;;;;;;;13.63;11.40;;;8.90;99.90;;;;;;5073023;28;20193;-69
2023/09/15 04:12:09;;;;;;;16.33;12.93;;;9.10;99.90;;;;;;5072869;28;20217;-68
2023/09/15 04:14:35;;;;;;;14.20;11.87;;;9.20;99.90;;;;;;5072855;28;20193;-68
2023/09/15 04:17:03;;;;;;;13.30;11.80;;;9.10;99.90;;;;;;5072840;28;20594;-68
2023/09/15 04:19:30;;;;;;;13.87;11.20;;;9.10;99.90;;;;;;5072888;28;20197;-68
2023/09/15 04:21:58;;;;;;;15.00;11.73;;;9.00;99.90;;;;;;5072698;28;20709;-68
2023/09/15 04:24:25;;;;;;;13.30;11.73;;;8.80;99.90;;;;;;5072685;28;20197;-68
2023/09/15 04:26:51;;;;;;;13.20;11.47;;;8.70;99.90;;;;;;5072573;28;20291;-68
2023/09/15 04:29:18;;;;;;;12.47;11.17;;;8.80;99.90;;;;;;5072899;28;20200;-68
2023/09/15 04:31:45;;;;;;;14.33;11.33;;;8.70;99.90;;;;;;5072782;28;20288;-68
2023/09/15 04:34:11;;;;;;;13.27;11.27;;;8.90;99.90;;;;;;5072636;28;20229;-68
2023/09/15 04:36:38;;;;;;;14.60;11.97;;;8.80;99.90;;;;;;5072464;28;20316;-68
2023/09/15 04:39:07;;;;;;;14.73;11.30;;;8.70;99.90;;;;;;5072516;28;20196;-68
2023/09/15 04:41:33;;;;;;;15.90;12.17;;;8.80;99.90;;;;;;5072524;28;20231;-68
2023/09/15 04:44:00;;;;;;;15.37;12.13;;;8.90;99.90;;;;;;5072760;28;20201;-68
2023/09/15 04:46:27;;;;;;;16.43;12.33;;;8.80;99.90;;;;;;5072679;28;20197;-68
2023/09/15 04:48:54;;;;;;;13.90;12.07;;;8.70;99.90;;;;;;5072331;28;20201;-68
2023/09/15 04:51:20;;;;;;;16.33;12.83;;;8.60;99.90;;;;;;5072604;28;20243;-68
2023/09/15 04:53:47;;;;;;;14.97;12.53;;;8.60;99.90;;;;;;5074641;28;20293;-68
2023/09/15 04:56:15;;;;;;;15.77;12.73;;;8.60;99.90;;;;;;5076507;28;20247;-68
2023/09/15 04:58:45;;;;;;;16.57;12.93;;;8.60;99.90;;;;;;5076694;28;20201;-68
2023/09/15 05:01:13;;;;;;;15.43;12.50;;;8.80;99.90;;;;;;5076748;28;20250;-68
2023/09/15 05:03:40;;;;;;;16.30;13.30;;;8.60;99.90;;;;;;5076625;28;20193;-68
2023/09/15 05:06:07;;;;;;;14.87;13.07;;;8.60;99.90;;;;;;5076434;28;20200;-68
2023/09/15 05:08:34;;;;;;;14.70;12.47;;;8.60;99.90;;;;;;5076302;28;20280;-68
2023/09/15 05:11:00;;;;;;;14.73;13.07;;;8.60;99.90;;;;;;5076550;28;20201;-69
2023/09/15 05:13:28;;;;;;;13.97;12.47;;;8.70;99.90;;;;;;5076511;28;20286;-68
2023/09/15 05:15:55;;;;;;;17.50;13.40;;;8.70;99.90;;;;;;5075868;28;20667;-68
2023/09/15 05:18:21;;;;;;;18.40;13.27;;;8.90;99.90;;;;;;5076098;28;20204;-68
2023/09/15 05:20:48;;;;;;;17.40;13.33;;;9.10;99.90;;;;;;5076124;28;20200;-68
2023/09/15 05:23:15;;;;;;;17.47;13.57;;;9.10;99.90;;;;;;5075894;28;20231;-68
2023/09/15 05:25:41;;;;;;;16.67;13.73;;;9.20;99.90;;;;;;5076198;28;20244;-68
2023/09/15 05:28:09;;;;;;;18.03;13.07;;;9.20;99.90;;;;;;5076221;28;20556;-68
2023/09/15 05:30:37;;;;;;;17.00;13.60;;;9.10;99.90;;;;;;5075973;28;20242;-72
2023/09/15 05:33:08;;;;;;;20.80;13.43;;;9.10;99.90;;;;;;5075710;28;20221;-68
2023/09/15 05:35:35;;;;;;;17.53;12.93;;;9.20;99.90;;;;;;5075497;28;20197;-68
2023/09/15 05:38:02;;;;;;;18.57;14.13;;;9.30;99.90;;;;;;5076012;28;20200;-68
2023/09/15 05:40:29;;;;;;;18.77;14.30;;;9.40;99.90;;;;;;5075551;28;20714;-68
2023/09/15 05:42:57;;;;;;;15.87;14.00;;;9.50;99.90;;;;;;5075313;28;20197;-68
2023/09/15 05:45:24;;;;;;;22.67;14.40;;;9.50;99.90;;;;;;5075482;28;20197;-68
2023/09/15 05:47:52;;;;;;;17.90;13.20;;;9.70;99.90;;;;;;5075446;28;20225;-68
2023/09/15 05:50:18;;;;;;;18.90;13.90;;;9.80;99.90;;;;;;5075100;28;20247;-68
2023/09/15 05:52:45;;;;;;;20.93;14.03;;;9.80;99.90;;;;;;5075440;28;20282;-68
2023/09/15 05:55:12;;;;;;;15.90;12.87;;;9.90;99.90;;;;;;5075561;28;20337;-68
2023/09/15 05:57:38;;;;;;;15.47;13.33;;;10.00;99.90;;;;;;5075455;28;20201;-69
2023/09/15 06:00:06;;;;;;;15.03;13.00;;;10.10;99.90;;;;;;5075431;28;20201;-68
2023/09/15 06:02:33;;;;;;;15.80;13.43;;;10.20;99.90;;;;;;5075249;28;20797;-69
2023/09/15 06:05:01;;;;;;;18.13;12.50;;;10.30;99.90;;;;;;5074623;28;20197;-68
2023/09/15 06:07:28;;;;;;;18.67;12.63;;;10.40;99.90;;;;;;5075295;28;20201;-69
2023/09/15 06:09:55;;;;;;;16.17;12.77;;;10.40;99.90;;;;;;5075411;28;20217;-68
2023/09/15 06:12:21;;;;;;;17.70;13.43;;;10.60;99.90;;;;;;5075281;28;20200;-70
2023/09/15 06:14:48;;;;;;;14.17;12.70;;;10.80;99.90;;;;;;5075226;28;20282;-68
2023/09/15 06:17:15;;;;;;;16.10;12.43;;;10.90;99.90;;;;;;5075141;28;20197;-68
2023/09/15 06:19:41;;;;;;;14.67;12.40;;;11.00;99.90;;;;;;5075354;28;20645;-69
2023/09/15 06:22:09;;;;;;;15.47;11.97;;;11.20;99.90;;;;;;5075012;28;20193;-68
2023/09/15 06:24:36;;;;;;;14.60;12.53;;;11.30;99.90;;;;;;5075045;28;20209;-68
2023/09/15 06:27:03;;;;;;;15.60;13.90;;;11.50;99.90;;;;;;5074781;28;20660;-69
2023/09/15 06:29:29;;;;;;;15.30;13.13;;;11.60;99.90;;;;;;5074572;28;20193;-68
2023/09/15 06:31:56;;;;;;;14.63;12.63;;;11.80;99.90;;;;;;5074550;28;20258;-68
2023/09/15 06:34:23;;;;;;;16.53;13.20;;;11.90;99.90;;;;;;5074649;28;20232;-68
2023/09/15 06:36:50;;;;;;;14.90;13.20;;;12.10;99.90;;;;;;5074479;28;20232;-68
2023/09/15 06:39:19;;;;;;;15.87;13.07;;;12.20;99.90;;;;;;5074706;28;20203;-68
2023/09/15 06:41:46;;;;;;;14.97;13.33;;;12.40;99.90;;;;;;5074368;28;20279;-68
2023/09/15 06:44:12;;;;;;;16.37;13.77;;;12.50;99.90;;;;;;5074164;28;20288;-68
2023/09/15 06:46:39;;;;;;;15.17;12.67;;;12.60;99.90;;;;;;5074072;28;20200;-68
2023/09/15 06:49:06;;;;;;;15.60;13.23;;;12.80;99.90;;;;;;5074368;28;20656;-68
2023/09/15 06:51:32;;;;;;;14.57;12.40;;;12.80;99.90;;;;;;5074355;28;20255;-69
2023/09/15 06:54:00;;;;;;;14.07;12.67;;;13.00;99.90;;;;;;5074152;28;20239;-68
2023/09/15 06:56:28;;;;;;;14.20;12.70;;;13.10;99.90;;;;;;5072444;28;20197;-68
2023/09/15 06:58:55;;;;;;;14.13;12.20;;;13.20;99.90;;;;;;5072870;28;20332;-68
2023/09/15 07:01:21;;;;;;;12.43;11.13;;;13.30;99.90;;;;;;5074154;28;20205;-68
2023/09/15 07:03:48;;;;;;;13.60;11.40;;;13.40;99.90;;;;;;5054169;28;20198;-68
2023/09/15 07:06:14;;;;;;;14.10;11.07;;;13.50;99.90;;;;;;5053970;28;20205;-68
2023/09/15 07:08:42;;;;;;;12.70;11.40;;;13.70;99.90;;;;;;5072988;28;20246;-69
2023/09/15 07:11:09;;;;;;;12.33;11.03;;;13.80;99.90;;;;;;5073806;28;20270;-68
2023/09/15 07:13:37;;;;;;;12.63;10.83;;;14.00;99.90;;;;;;5073560;28;20217;-68
2023/09/15 07:16:04;;;;;;;12.07;10.87;;;14.10;99.90;;;;;;5073265;28;20262;-69
2023/09/15 07:18:30;;;;;;;10.93;9.63;;;14.20;99.90;;;;;;5073147;28;20246;-69
2023/09/15 07:20:57;;;;;;;13.10;10.27;;;14.30;99.90;;;;;;5073309;28;20205;-68
2023/09/15 07:23:23;;;;;;;11.37;10.20;;;14.50;99.90;;;;;;5073671;28;20209;-79
2023/09/15 07:25:50;;;;;;;12.60;10.40;;;14.70;99.90;;;;;;5073187;28;20599;-71
2023/09/15 07:28:17;;;;;;;12.33;10.50;;;14.80;99.90;;;;;;5073433;28;20197;-71
2023/09/15 07:30:45;;;;;;;10.70;9.70;;;15.00;99.90;;;;;;5073560;28;20251;-71
2023/09/15 07:33:11;;;;;;;11.33;9.57;;;15.10;99.90;;;;;;5073482;28;20270;-69
2023/09/15 07:35:38;;;;;;;10.43;9.33;;;15.30;99.90;;;;;;5073365;28;20201;-70
2023/09/15 07:38:05;;;;;;;12.82;10.27;;;15.40;99.90;;;;;;5073415;28;20203;-70
2023/09/15 07:40:32;;;;;;;10.45;9.45;;;15.60;99.90;;;;;;5073195;28;20208;-70
2023/09/15 07:42:59;;;;;;;11.30;9.18;;;15.80;99.90;;;;;;5073220;28;20250;-69
2023/09/15 07:45:27;;;;;;;11.35;9.57;;;15.90;99.90;;;;;;5073309;28;20201;-69
2023/09/15 07:47:55;;;;;;;10.07;9.15;;;16.10;99.90;;;;;;5073271;28;20262;-70
2023/09/15 07:50:22;;;;;;;9.65;8.75;;;16.30;99.90;;;;;;5073081;28;20200;-69
2023/09/15 07:52:49;;;;;;;9.18;8.20;;;16.50;99.90;;;;;;5073090;28;20201;-69
2023/09/15 07:55:15;;;;;;;9.93;8.93;;;16.80;99.90;;;;;;5072609;28;20631;-69
2023/09/15 07:57:42;;;;;;;11.68;9.07;;;16.90;99.90;;;;;;5072917;28;20634;-69
2023/09/15 08:00:11;;;;;;;10.27;9.20;;;17.00;99.90;;;;;;5072804;28;20204;-69
2023/09/15 08:02:38;;;;;;;9.93;8.98;;;17.10;99.90;;;;;;5073141;28;20205;-68
2023/09/15 08:05:07;;;;;;;10.82;9.73;;;17.10;99.90;;;;;;5072970;28;20197;-66
2023/09/15 08:07:33;;;;;;;9.98;9.00;;;17.30;99.90;;;;;;5072854;28;20197;-67
2023/09/15 08:10:01;;;;;;;10.65;9.43;;;17.50;99.90;;;;;;5072865;28;20254;-66
2023/09/15 08:12:27;;;;;;;10.73;9.15;;;17.70;99.90;;;;;;5072943;28;20250;-66
2023/09/15 08:14:54;;;;;;;10.20;9.20;;;17.90;99.90;;;;;;5072657;28;20727;-67
2023/09/15 08:17:21;;;;;;;9.43;8.57;;;18.00;99.90;;;;;;5072855;28;20219;-68
2023/09/15 08:19:47;;;;;;;10.00;8.95;;;18.00;99.90;;;;;;5072496;28;20722;-70
2023/09/15 08:22:16;;;;;;;9.75;8.77;;;18.10;99.90;;;;;;5072592;28;20552;-67
2023/09/15 08:24:42;;;;;;;9.65;8.82;;;18.30;99.90;;;;;;5072786;28;20197;-68
2023/09/15 08:27:09;;;;;;;9.50;8.70;;;18.50;99.90;;;;;;5072680;28;20204;-68
2023/09/15 08:29:35;;;;;;;10.63;9.52;;;18.80;99.90;;;;;;5072438;28;20193;-69
2023/09/15 08:32:03;;;;;;;9.45;8.55;;;19.00;99.90;;;;;;5072713;28;20201;-69
2023/09/15 08:34:30;;;;;;;9.65;8.77;;;19.00;99.90;;;;;;5072408;28;20233;-69
2023/09/15 08:36:56;;;;;;;9.02;8.25;;;19.10;99.90;;;;;;5072272;28;20232;-68
2023/09/15 08:39:26;;;;;;;9.52;8.63;;;19.30;99.90;;;;;;5072570;28;20205;-68
2023/09/15 08:41:56;;;;;;;10.23;8.35;;;19.50;99.90;;;;;;5072301;28;20659;-68
2023/09/15 08:44:24;;;;;;;9.38;8.57;;;19.80;99.90;;;;;;5072577;28;20333;-68
2023/09/15 08:46:52;;;;;;;9.23;8.43;;;19.60;99.90;;;;;;5072312;28;20266;-68
2023/09/15 08:49:19;;;;;;;9.13;8.32;;;19.60;99.90;;;;;;5072232;28;20713;-68
2023/09/15 08:51:46;;;;;;;8.55;7.80;;;20.00;99.90;;;;;;5072442;28;20212;-68
2023/09/15 08:54:14;;;;;;;9.32;8.43;;;20.20;99.90;;;;;;5072384;28;20285;-68
2023/09/15 08:56:43;;;;;;;8.75;7.88;;;20.50;99.90;;;;;;5072196;28;20201;-68
2023/09/15 08:59:10;;;;;;;8.77;7.88;;;20.70;99.90;;;;;;5072248;28;20249;-68
2023/09/15 09:01:37;;;;;;;8.90;8.10;;;20.90;99.90;;;;;;5072132;28;20276;-68
2023/09/15 09:04:05;;;;;;;8.27;7.47;;;21.00;99.90;;;;;;5072032;28;20204;-68
2023/09/15 09:06:34;;;;;;;8.32;7.53;;;21.10;99.90;;;;;;5072176;28;20197;-69
2023/09/15 09:09:01;;;;;;;8.70;7.82;;;21.30;99.90;;;;;;5072326;28;20288;-68
2023/09/15 09:11:28;;;;;;;9.23;7.40;;;21.60;99.90;;;;;;5072197;28;20267;-69
2023/09/15 09:13:56;;;;;;;9.23;7.05;;;22.00;99.90;;;;;;5071965;28;20228;-68
2023/09/15 09:16:23;;;;;;;8.48;7.47;;;22.30;99.90;;;;;;5071622;28;20204;-68
2023/09/15 09:18:57;;;;;;;7.90;7.18;;;22.50;99.90;;;;;;5072208;28;20199;-66
2023/09/15 09:21:25;;;;;;;8.07;7.38;;;22.70;99.90;;;;;;5071983;28;20552;-68
2023/09/15 09:23:52;;;;;;;7.40;6.78;;;22.40;99.90;;;;;;5072154;28;20207;-68
2023/09/15 09:26:19;;;;;;;7.38;6.75;;;22.60;99.90;;;;;;5071717;28;20695;-68
2023/09/15 09:28:46;;;;;;;8.10;6.63;;;23.00;99.90;;;;;;5067825;28;20284;-68
2023/09/15 09:31:15;;;;;;;8.48;7.60;;;23.40;99.90;;;;;;5069978;28;20594;-68
2023/09/15 09:33:42;;;;;;;9.15;7.20;;;23.20;99.90;;;;;;5072156;28;20197;-68
2023/09/15 09:36:13;;;;;;;6.32;5.80;;;23.60;99.90;;;;;;5071953;28;20232;-68
2023/09/15 09:38:41;;;;;;;6.93;6.32;;;24.10;99.90;;;;;;5071892;28;20638;-68
2023/09/15 09:41:09;;;;;;;7.13;6.43;;;24.40;99.90;;;;;;5074407;28;20201;-68
2023/09/15 09:43:37;;;;;;;7.10;6.40;;;24.70;99.90;;;;;;5075464;28;20197;-67
2023/09/15 09:46:04;;;;;;;7.55;5.70;;;24.70;99.90;;;;;;5075550;28;20247;-68
2023/09/15 09:48:34;;;;;;;6.28;5.68;;;24.80;99.90;;;;;;5075700;28;20196;-68
2023/09/15 09:51:02;;;;;;;6.43;5.65;;;25.10;99.90;;;;;;5075734;28;20201;-68
2023/09/15 09:53:29;;;;;;;6.32;5.82;;;25.40;99.90;;;;;;5075437;28;20255;-68
2023/09/15 09:55:56;;;;;;;7.38;5.65;;;25.40;99.90;;;;;;5075217;28;20319;-68
2023/09/15 09:58:23;;;;;;;6.68;6.07;;;25.70;99.90;;;;;;5075381;28;20848;-68
2023/09/15 10:00:51;;;;;;;5.68;5.28;;;26.10;99.90;;;;;;5075329;28;20197;-67
2023/09/15 10:03:18;;;;;;;5.90;5.45;;;26.30;99.90;;;;;;5074935;28;20193;-67
2023/09/15 10:05:47;;;;;;;6.03;5.45;;;25.90;99.90;;;;;;5075255;28;20615;-68
2023/09/15 10:08:15;;;;;;;5.50;5.10;;;25.80;99.90;;;;;;5075413;28;20220;-68
2023/09/15 10:10:44;;;;;;;6.25;5.65;;;26.30;99.90;;;;;;5075098;28;20205;-67
2023/09/15 10:13:11;;;;;;;5.63;5.00;;;26.40;98.80;;;;;;5075104;28;20205;-68
2023/09/15 10:15:39;;;;;;;5.80;5.20;;;26.50;99.00;;;;;;5075207;28;20220;-68
2023/09/15 10:18:07;;;;;;;6.43;5.40;;;27.00;98.30;;;;;;5074957;28;20199;-68
2023/09/15 10:20:35;;;;;;;4.25;3.90;;;27.30;96.30;;;;;;5074946;28;20226;-68
2023/09/15 10:23:04;;;;;;;4.40;4.00;;;27.50;96.30;;;;;;5074929;28;20204;-68
2023/09/15 10:25:41;;;;;;;4.95;4.60;;;28.00;95.80;;;;;;5073896;28;20203;-68
2023/09/15 10:28:07;;;;;;;4.68;4.28;;;28.60;94.20;;;;;;5075124;28;20204;-69
2023/09/15 10:30:36;;;;;;;4.43;4.03;;;29.00;93.20;;;;;;5066115;28;20633;-68
2023/09/15 10:33:03;;;;;;;4.22;3.80;;;29.20;92.40;;;;;;5073993;28;20287;-68
2023/09/15 10:35:30;;;;;;;5.05;4.07;;;29.80;91.20;;;;;;5074180;28;20220;-69
2023/09/15 10:38:02;;;;;;;4.20;3.78;;;30.10;89.50;;;;;;5074218;28;20233;-68
2023/09/15 10:40:42;;;;;;;5.53;4.03;;;30.60;86.80;;;;;;5074506;28;20197;-69
2023/09/15 10:43:09;;;;;;;5.45;3.97;;;29.60;85.50;;;;;;5074292;28;20725;-69
2023/09/15 10:45:35;;;;;;;5.28;3.78;;;28.80;85.00;;;;;;5074080;28;20197;-68
2023/09/15 10:48:03;;;;;;;5.43;3.55;;;29.50;84.20;;;;;;5074313;28;20257;-69
2023/09/15 10:50:31;;;;;;;5.43;4.03;;;29.50;84.50;;;;;;5074311;28;20284;-68
2023/09/15 10:53:07;;;;;;;3.60;3.30;;;30.30;81.10;;;;;;5074257;28;20296;-68
2023/09/15 10:55:36;;;;;;;4.65;3.25;;;31.10;78.60;;;;;;5074094;28;20228;-69
2023/09/15 10:58:03;;;;;;;4.68;3.60;;;30.30;76.80;;;;;;5074021;28;20291;-69
2023/09/15 11:00:30;;;;;;;3.78;3.47;;;31.20;75.50;;;;;;5073936;28;20330;-70
2023/09/15 11:02:57;;;;;;;4.68;3.70;;;31.90;74.00;;;;;;5074230;28;20891;-69
2023/09/15 11:05:26;;;;;;;3.90;3.60;;;32.30;71.00;;;;;;5074133;28;20211;-69
2023/09/15 11:07:54;;;;;;;3.85;3.17;;;33.00;67.90;;;;;;5073995;28;20197;-69
2023/09/15 11:10:21;;;;;;;4.28;3.60;;;33.60;65.60;;;;;;5073867;28;20200;-69
2023/09/15 11:12:49;;;;;;;3.35;3.05;;;33.70;61.60;;;;;;5073879;28;20200;-69
2023/09/15 11:15:16;;;;;;;3.45;3.25;;;33.70;61.70;;;;;;5073716;28;20269;-69
2023/09/15 11:17:45;;;;;;;3.60;3.00;;;33.80;58.60;;;;;;5073629;28;20717;-69
2023/09/15 11:20:11;;;;;;;4.25;2.70;;;33.80;58.60;;;;;;5073803;28;20203;-70
2023/09/15 11:22:39;;;;;;;5.25;3.00;;;34.30;57.50;;;;;;5073776;28;20255;-70
2023/09/15 11:25:08;;;;;;;3.90;2.80;;;34.00;56.50;;;;;;5073488;28;20565;-70
2023/09/15 11:27:34;;;;;;;3.30;3.08;;;34.80;56.00;;;;;;5073608;28;20242;-70
2023/09/15 11:30:06;;;;;;;3.65;3.35;;;35.10;53.60;;;;;;5073372;28;20254;-69
2023/09/15 11:32:34;;;;;;;3.17;2.88;;;34.70;52.60;;;;;;5073680;28;20200;-70
2023/09/15 11:35:04;;;;;;;2.88;2.58;;;35.20;52.40;;;;;;5073461;28;20217;-70
2023/09/15 11:37:31;;;;;;;3.08;2.80;;;35.80;51.00;;;;;;5073420;28;20221;-70
2023/09/15 11:39:59;;;;;;;3.20;2.90;;;35.60;49.80;;;;;;5073424;28;20625;-70
2023/09/15 11:42:25;;;;;;;3.22;2.92;;;35.00;48.40;;;;;;5073161;28;20242;-70
2023/09/15 11:44:52;;;;;;;3.00;2.80;;;34.70;50.10;;;;;;5073456;28;20285;-70
2023/09/15 11:47:21;;;;;;;3.20;3.00;;;35.00;49.00;;;;;;5073213;28;20197;-70
2023/09/15 11:49:48;;;;;;;4.30;2.90;;;35.30;48.80;;;;;;5073348;28;20205;-71
2023/09/15 11:52:15;;;;;;;2.67;2.42;;;35.80;47.20;;;;;;5073180;28;20254;-69
2023/09/15 11:54:44;;;;;;;2.75;2.55;;;36.10;46.80;;;;;;5072984;28;20204;-69
2023/09/15 11:57:11;;;;;;;3.25;2.95;;;36.30;45.60;;;;;;5073065;28;20203;-69
2023/09/15 11:59:38;;;;;;;3.30;3.00;;;34.50;46.70;;;;;;5072799;28;20242;-68
2023/09/15 12:02:06;;;;;;;3.40;3.10;;;33.40;48.20;;;;;;5072988;28;20197;-68
2023/09/15 12:04:34;;;;;;;4.65;2.83;;;33.90;47.10;;;;;;5072367;28;20721;-69
2023/09/15 12:07:01;;;;;;;6.43;4.55;;;34.50;47.40;;;;;;5072876;28;20258;-69
2023/09/15 12:09:27;;;;;;;2.95;2.75;;;35.60;46.80;;;;;;5072789;28;20242;-69
2023/09/15 12:11:54;;;;;;;3.75;3.45;;;36.00;45.60;;;;;;5072869;28;20254;-69
2023/09/15 12:14:21;;;;;;;3.70;2.60;;;37.00;44.40;;;;;;5072587;28;20212;-69
2023/09/15 12:16:48;;;;;;;3.38;3.08;;;35.60;43.20;;;;;;5072695;28;20204;-69
2023/09/15 12:19:16;;;;;;;2.90;2.70;;;33.20;45.80;;;;;;5072600;28;20639;-69
2023/09/15 12:21:55;;;;;;;6.18;3.00;;;34.30;45.70;;;;;;5072739;28;20193;-69
2023/09/15 12:24:23;;;;;;;3.20;2.90;;;35.70;44.70;;;;;;5072640;28;20287;-69
2023/09/15 12:26:50;;;;;;;3.08;2.70;;;35.90;43.90;;;;;;5072809;28;20203;-69
2023/09/15 12:29:17;;;;;;;2.80;2.60;;;35.90;42.80;;;;;;5072800;28;20200;-69
2023/09/15 12:31:45;;;;;;;3.08;2.72;;;35.40;41.70;;;;;;5072541;28;20283;-69
2023/09/15 12:34:19;;;;;;;4.30;2.85;;;36.30;42.10;;;;;;5072576;28;20282;-69
2023/09/15 12:36:46;;;;;;;4.15;3.08;;;36.90;41.70;;;;;;5072411;28;20228;-70
2023/09/15 12:39:15;;;;;;;4.22;2.40;;;36.80;40.40;;;;;;5072570;28;20196;-69
2023/09/15 12:41:43;;;;;;;2.90;2.70;;;36.10;40.20;;;;;;5072728;28;20196;-69